Time;durP1;ratioP1;P1;durP2;ratioP2;P2;SDS_P1;SDS_P2;PMS_P1;PMS_P2;Temp;Humidity;BMP_temperature;BMP_pressure;BME280_temperature;BME280_humidity;BME280_pressure;Samples;Min_cycle;Max_cycle;Signal;HPM_P1;HPM_P2
2023/01/24 00:00:48;;;;;;;4.22;1.80;;;2.60;99.90;;;;;;4429351;32;20443;-72
2023/01/24 00:03:13;;;;;;;1.10;1.05;;;2.60;99.90;;;;;;4420827;32;20089;-73
2023/01/24 00:05:40;;;;;;;0.60;0.60;;;2.60;99.90;;;;;;4428094;32;20062;-71
2023/01/24 00:08:06;;;;;;;0.55;0.55;;;2.60;99.90;;;;;;4429910;32;20065;-72
2023/01/24 00:10:32;;;;;;;0.98;0.98;;;2.60;99.90;;;;;;4424669;32;20082;-71
2023/01/24 00:15:23;;;;;;;0.80;0.80;;;2.70;99.90;;;;;;4421336;32;20147;-73
2023/01/24 00:17:49;;;;;;;0.88;0.88;;;2.60;99.90;;;;;;4429742;32;20088;-71
2023/01/24 00:20:15;;;;;;;2.47;1.87;;;2.70;99.90;;;;;;4428827;32;20438;-71
2023/01/24 00:22:41;;;;;;;0.50;0.50;;;2.60;99.90;;;;;;4429238;32;20673;-72
2023/01/24 00:25:07;;;;;;;1.48;1.15;;;2.50;99.90;;;;;;4429428;32;20077;-71
2023/01/24 00:27:34;;;;;;;1.35;1.00;;;2.50;99.90;;;;;;4428487;32;20054;-71
2023/01/24 00:29:59;;;;;;;1.15;1.08;;;2.50;99.90;;;;;;4427212;32;20115;-72
2023/01/24 00:32:25;;;;;;;0.80;0.80;;;2.60;99.90;;;;;;4422481;32;20077;-75
2023/01/24 00:34:50;;;;;;;0.45;0.45;;;2.50;99.90;;;;;;4420165;32;20065;-71
2023/01/24 00:37:16;;;;;;;8.50;1.37;;;2.50;99.90;;;;;;4421229;32;20082;-71
2023/01/24 00:39:41;;;;;;;0.70;0.70;;;2.50;99.90;;;;;;4415053;32;21656;-73
2023/01/24 00:42:07;;;;;;;1.12;1.12;;;2.40;99.90;;;;;;4414798;32;20073;-73
2023/01/24 00:44:33;;;;;;;1.55;1.45;;;2.40;99.90;;;;;;4416826;32;20117;-71
2023/01/24 00:46:58;;;;;;;1.35;1.17;;;2.40;99.90;;;;;;4427657;32;20070;-71
2023/01/24 00:49:24;;;;;;;0.90;0.90;;;2.50;99.90;;;;;;4428573;32;20053;-71
2023/01/24 00:51:49;;;;;;;0.77;0.77;;;2.50;99.90;;;;;;4430434;32;20109;-71
2023/01/24 00:54:15;;;;;;;19.27;1.70;;;2.40;99.90;;;;;;4430263;32;20190;-72
2023/01/24 00:56:40;;;;;;;0.55;0.55;;;2.40;99.90;;;;;;4431029;32;20077;-71
2023/01/24 00:59:06;;;;;;;0.80;0.80;;;2.40;99.90;;;;;;4429478;32;20060;-71
2023/01/24 01:01:31;;;;;;;0.93;0.85;;;2.40;99.90;;;;;;4430409;32;20097;-71
2023/01/24 01:03:57;;;;;;;1.60;1.20;;;2.40;99.90;;;;;;4418788;32;20065;-73
2023/01/24 01:06:24;;;;;;;0.52;0.52;;;2.30;99.90;;;;;;4431853;32;20086;-72
2023/01/24 01:08:51;;;;;;;2.53;1.75;;;2.30;99.90;;;;;;4429559;32;20472;-71
2023/01/24 01:11:16;;;;;;;2.28;1.52;;;2.30;99.90;;;;;;4419000;32;20147;-71
2023/01/24 01:13:42;;;;;;;1.90;1.35;;;2.30;99.90;;;;;;4414798;32;20093;-72
2023/01/24 01:16:10;;;;;;;3.92;1.12;;;2.40;99.90;;;;;;4428321;32;20118;-72
2023/01/24 01:18:37;;;;;;;2.90;1.58;;;2.50;99.90;;;;;;4430672;32;20065;-72
2023/01/24 01:21:03;;;;;;;1.27;0.75;;;2.50;99.90;;;;;;4428488;32;20086;-72
2023/01/24 01:23:29;;;;;;;5.20;1.40;;;2.30;99.90;;;;;;4432550;32;20062;-73
2023/01/24 01:25:59;;;;;;;1.20;1.10;;;2.20;99.90;;;;;;4429634;32;20187;-71
2023/01/24 01:28:24;;;;;;;11.93;1.92;;;2.30;99.90;;;;;;4425745;32;20512;-73
2023/01/24 01:30:53;;;;;;;3.83;1.20;;;2.20;99.90;;;;;;4428973;32;20060;-75
2023/01/24 01:33:18;;;;;;;0.93;0.93;;;2.30;99.90;;;;;;4416999;32;20519;-74
2023/01/24 01:35:44;;;;;;;0.90;0.90;;;2.20;99.90;;;;;;4425557;32;20066;-72
2023/01/24 01:38:09;;;;;;;2.62;1.45;;;2.30;99.90;;;;;;4429804;32;20057;-71
2023/01/24 01:40:35;;;;;;;0.52;0.52;;;2.30;99.90;;;;;;4408048;32;20093;-73
2023/01/24 01:43:01;;;;;;;1.10;0.70;;;2.20;99.90;;;;;;4413276;32;20451;-73
2023/01/24 01:45:45;;;;;;;0.55;0.55;;;2.30;99.90;;;;;;4418069;32;21370;-72
2023/01/24 01:48:42;;;;;;;0.55;0.55;;;2.30;99.90;;;;;;4427008;32;20127;-73
2023/01/24 01:51:27;;;;;;;1.00;0.98;;;2.40;99.90;;;;;;4420239;32;20085;-73
2023/01/24 01:54:04;;;;;;;1.10;0.98;;;2.20;99.90;;;;;;4431433;32;20072;-72
2023/01/24 01:56:36;;;;;;;0.80;0.80;;;2.20;99.90;;;;;;4430869;32;20082;-73
2023/01/24 01:59:07;;;;;;;0.60;0.60;;;2.10;99.90;;;;;;4428398;32;20133;-73
2023/01/24 02:01:33;;;;;;;;;;;2.10;99.90;;;;;;4433435;32;20085;-74
2023/01/24 02:04:08;;;;;;;0.77;0.77;;;2.10;99.90;;;;;;4421031;32;19944;-73
2023/01/24 02:06:50;;;;;;;0.95;0.95;;;2.10;99.90;;;;;;4430567;32;20053;-73
2023/01/24 02:09:21;;;;;;;0.57;0.57;;;2.10;99.90;;;;;;4431673;32;20084;-72
2023/01/24 02:11:47;;;;;;;0.57;0.57;;;2.20;99.90;;;;;;4417857;32;20607;-73
2023/01/24 02:16:17;;;;;;;0.40;0.40;;;2.10;99.90;;;;;;4417163;32;20105;-73
2023/01/24 02:17:03;;;;;;;1.67;1.23;;;2.10;99.90;;;;;;4419403;32;20159;-72
2023/01/24 02:19:50;;;;;;;2.90;1.37;;;2.20;99.90;;;;;;4429929;32;20204;-71
2023/01/24 02:22:36;;;;;;;0.50;0.50;;;2.20;99.90;;;;;;4430995;32;20086;-72
2023/01/24 02:25:21;;;;;;;1.20;1.10;;;2.10;99.90;;;;;;4414599;32;20069;-73
2023/01/24 02:27:47;;;;;;;1.27;1.15;;;2.10;99.90;;;;;;4418385;32;20065;-72
2023/01/24 02:30:12;;;;;;;0.40;0.40;;;2.00;99.90;;;;;;4430218;32;20094;-72
2023/01/24 02:32:38;;;;;;;2.28;1.37;;;2.10;99.90;;;;;;4426379;32;20062;-74
2023/01/24 02:35:04;;;;;;;0.50;0.50;;;2.10;99.90;;;;;;4422443;32;20129;-72
2023/01/24 02:37:31;;;;;;;0.50;0.50;;;2.00;99.90;;;;;;4434182;32;20053;-72
2023/01/24 02:40:01;;;;;;;0.70;0.70;;;1.90;99.90;;;;;;4427934;32;21823;-74
2023/01/24 02:42:33;;;;;;;0.40;0.40;;;2.00;99.90;;;;;;4399383;32;20098;-73
2023/01/24 02:45:19;;;;;;;1.15;0.70;;;2.00;99.90;;;;;;4418813;32;20077;-71
2023/01/24 02:47:48;;;;;;;0.55;0.55;;;2.00;99.90;;;;;;4429720;32;20169;-72
2023/01/24 02:50:18;;;;;;;3.30;2.15;;;2.00;99.90;;;;;;4431808;32;20069;-71
2023/01/24 02:53:44;;;;;;;0.70;0.70;;;2.00;99.90;;;;;;4428640;32;20085;-71
2023/01/24 02:55:30;;;;;;;0.50;0.50;;;2.00;99.90;;;;;;4418813;32;20077;-72
2023/01/24 02:58:12;;;;;;;0.50;0.50;;;2.10;99.90;;;;;;4429734;32;20090;-73
2023/01/24 03:00:41;;;;;;;0.98;0.90;;;2.00;99.90;;;;;;4430434;32;20142;-72
2023/01/24 03:03:07;;;;;;;0.50;0.50;;;2.00;99.90;;;;;;4424412;32;20065;-74
2023/01/24 03:06:05;;;;;;;0.50;0.50;;;1.90;99.90;;;;;;4427380;32;20065;-72
2023/01/24 03:08:19;;;;;;;4.35;1.33;;;1.90;99.90;;;;;;4418317;32;20074;-72
2023/01/24 03:10:46;;;;;;;1.55;1.33;;;1.90;99.90;;;;;;4423427;32;20601;-72
2023/01/24 03:34:38;;;;;;;0.70;0.70;;;1.80;99.90;;;;;;4413848;32;20539;-72
2023/01/24 03:35:18;;;;;;;0.47;0.47;;;1.80;99.90;;;;;;4415010;32;20082;-71
2023/01/24 03:40:00;;;;;;;0.50;0.50;;;1.80;99.90;;;;;;4430858;32;20085;-72
2023/01/24 03:40:29;;;;;;;1.65;1.48;;;1.80;99.90;;;;;;4412295;32;20118;-72
2023/01/24 03:42:55;;;;;;;0.93;0.88;;;1.80;99.90;;;;;;4414831;32;20549;-72
2023/01/24 03:45:23;;;;;;;0.52;0.52;;;1.80;99.90;;;;;;4424562;32;20076;-71
2023/01/24 03:47:55;;;;;;;0.65;0.65;;;1.80;99.90;;;;;;4429715;32;20647;-71
2023/01/24 03:52:27;;;;;;;0.60;0.60;;;1.80;99.90;;;;;;4431699;32;20520;-71
2023/01/24 03:53:08;;;;;;;0.47;0.47;;;1.70;99.90;;;;;;4418268;32;20073;-71
2023/01/24 03:55:34;;;;;;;0.45;0.45;;;1.70;99.90;;;;;;4429520;32;20120;-71
2023/01/24 03:57:59;;;;;;;0.52;0.52;;;1.70;99.90;;;;;;4430294;32;20069;-72
2023/01/24 04:00:25;;;;;;;0.40;0.40;;;1.70;99.90;;;;;;4432863;32;20061;-72
2023/01/24 04:02:51;;;;;;;0.50;0.50;;;1.70;99.90;;;;;;4426002;32;20162;-72
2023/01/24 04:05:17;;;;;;;0.40;0.40;;;1.80;99.90;;;;;;4424409;32;20120;-71
2023/01/24 04:07:42;;;;;;;0.47;0.47;;;1.80;99.90;;;;;;4429493;32;20084;-72
2023/01/24 04:10:09;;;;;;;0.70;0.70;;;1.80;99.90;;;;;;4426133;32;20086;-74
2023/01/24 04:12:34;;;;;;;3.12;1.95;;;1.80;99.90;;;;;;4412107;32;20501;-72
2023/01/24 04:15:00;;;;;;;0.45;0.45;;;1.70;99.90;;;;;;4420125;32;20084;-71
2023/01/24 04:17:26;;;;;;;5.82;1.33;;;1.70;99.90;;;;;;4432833;32;20078;-73
2023/01/24 04:19:52;;;;;;;0.57;0.57;;;1.70;99.90;;;;;;4430686;32;20089;-72
2023/01/24 04:22:17;;;;;;;0.43;0.43;;;1.70;99.90;;;;;;4428747;32;20061;-71
2023/01/24 04:24:44;;;;;;;0.60;0.60;;;1.70;99.90;;;;;;4431365;32;20094;-71
2023/01/24 04:27:11;;;;;;;0.40;0.40;;;1.70;99.90;;;;;;4432118;32;20515;-71
2023/01/24 04:29:37;;;;;;;1.75;0.77;;;1.60;99.90;;;;;;4431690;32;20061;-72
2023/01/24 04:32:02;;;;;;;0.45;0.45;;;1.60;99.90;;;;;;4429728;32;20110;-73
2023/01/24 04:34:28;;;;;;;0.62;0.62;;;1.70;99.90;;;;;;4421519;32;20536;-71
2023/01/24 04:36:53;;;;;;;0.60;0.60;;;1.60;99.90;;;;;;4430354;32;20130;-71
2023/01/24 04:39:19;;;;;;;0.60;0.60;;;1.60;99.90;;;;;;4429281;32;20105;-71
2023/01/24 04:41:45;;;;;;;1.58;1.15;;;1.60;99.90;;;;;;4415815;32;20100;-71
2023/01/24 04:44:10;;;;;;;0.50;0.50;;;1.50;99.90;;;;;;4415923;32;20080;-71
2023/01/24 04:46:36;;;;;;;0.93;0.93;;;1.60;99.90;;;;;;4429910;32;20077;-72
2023/01/24 04:49:01;;;;;;;0.62;0.62;;;1.60;99.90;;;;;;4430567;32;20223;-72
2023/01/24 04:51:27;;;;;;;0.62;0.62;;;1.60;99.90;;;;;;4429701;32;20085;-71
2023/01/24 04:53:52;;;;;;;0.50;0.50;;;1.60;99.90;;;;;;4426078;32;20449;-71
2023/01/24 04:56:18;;;;;;;0.50;0.50;;;1.60;99.90;;;;;;4428288;32;20361;-73
2023/01/24 04:58:43;;;;;;;0.80;0.80;;;1.60;99.90;;;;;;4428552;32;20089;-73
2023/01/24 05:01:08;;;;;;;0.52;0.52;;;1.60;99.90;;;;;;4432275;32;20082;-72
2023/01/24 05:03:34;;;;;;;0.40;0.40;;;1.70;99.90;;;;;;4418023;32;20088;-72
2023/01/24 05:05:59;;;;;;;0.60;0.60;;;1.90;99.90;;;;;;4427942;32;20580;-71
2023/01/24 05:08:26;;;;;;;1.33;0.90;;;1.90;99.90;;;;;;4429351;32;20061;-72
2023/01/24 05:10:51;;;;;;;0.60;0.60;;;1.90;99.90;;;;;;4421835;32;20542;-73
2023/01/24 05:13:17;;;;;;;0.82;0.82;;;1.80;99.90;;;;;;4411191;32;20093;-73
2023/01/24 05:15:47;;;;;;;0.40;0.40;;;1.80;99.90;;;;;;4425038;32;20085;-71
2023/01/24 05:18:12;;;;;;;4.20;2.60;;;1.70;99.90;;;;;;4428903;32;20070;-71
2023/01/24 05:20:38;;;;;;;1.12;1.02;;;1.80;99.90;;;;;;4426624;32;20725;-73
2023/01/24 05:23:03;;;;;;;0.50;0.50;;;1.90;99.90;;;;;;4393642;32;20085;-73
2023/01/24 05:25:29;;;;;;;0.60;0.60;;;1.90;99.90;;;;;;4390331;32;20088;-74
2023/01/24 05:27:54;;;;;;;0.73;0.73;;;1.90;99.90;;;;;;4388572;32;20081;-73
2023/01/24 05:30:20;;;;;;;0.73;0.73;;;1.90;99.90;;;;;;4392500;32;20186;-73
2023/01/24 05:32:45;;;;;;;0.50;0.50;;;2.00;99.90;;;;;;4384998;32;20077;-74
2023/01/24 05:35:11;;;;;;;0.47;0.47;;;2.00;99.90;;;;;;4384648;32;20073;-73
2023/01/24 05:37:37;;;;;;;0.85;0.85;;;1.80;99.90;;;;;;4412066;32;20090;-72
2023/01/24 05:40:04;;;;;;;1.50;1.40;;;1.80;99.90;;;;;;4427082;32;20465;-72
2023/01/24 05:42:29;;;;;;;0.55;0.55;;;1.80;99.90;;;;;;4414527;32;21559;-72
2023/01/24 05:44:55;;;;;;;0.45;0.45;;;1.90;99.90;;;;;;4418134;32;20114;-72
2023/01/24 05:47:20;;;;;;;0.40;0.40;;;1.80;99.90;;;;;;4428707;32;20946;-71
2023/01/24 05:49:46;;;;;;;0.50;0.50;;;1.80;99.90;;;;;;4427236;32;20089;-71
2023/01/24 05:52:11;;;;;;;0.60;0.60;;;1.90;99.90;;;;;;4415732;32;20517;-73
2023/01/24 05:54:37;;;;;;;0.70;0.70;;;1.90;99.90;;;;;;4384950;32;20097;-74
2023/01/24 05:57:02;;;;;;;2.28;1.52;;;1.80;99.90;;;;;;4404754;32;20528;-72
2023/01/24 05:59:28;;;;;;;0.45;0.45;;;1.70;99.90;;;;;;4428636;32;20072;-72
2023/01/24 06:01:53;;;;;;;0.60;0.60;;;1.70;99.90;;;;;;4418831;32;20219;-73
2023/01/24 06:04:19;;;;;;;7.10;2.28;;;1.80;99.90;;;;;;4389848;32;20085;-73
2023/01/24 06:06:44;;;;;;;0.47;0.47;;;1.70;99.90;;;;;;4394283;32;20077;-74
2023/01/24 06:09:10;;;;;;;0.50;0.50;;;1.80;99.90;;;;;;4383664;32;20202;-74
2023/01/24 06:11:35;;;;;;;0.57;0.57;;;1.80;99.90;;;;;;4378610;32;20389;-74
2023/01/24 06:14:01;;;;;;;0.50;0.50;;;1.80;99.90;;;;;;4356607;32;20607;-73
2023/01/24 06:16:27;;;;;;;0.88;0.88;;;1.90;99.90;;;;;;4376858;32;20454;-74
2023/01/24 06:18:54;;;;;;;0.77;0.77;;;1.80;99.90;;;;;;4337153;32;20431;-74
2023/01/24 06:21:32;;;;;;;0.50;0.50;;;1.80;99.90;;;;;;4343179;32;20415;-74
2023/01/24 06:23:58;;;;;;;0.40;0.40;;;1.80;99.90;;;;;;4317359;32;20536;-73
2023/01/24 06:26:24;;;;;;;6.60;1.15;;;1.80;99.90;;;;;;4327543;32;20359;-74
2023/01/24 06:28:50;;;;;;;0.80;0.80;;;1.80;99.90;;;;;;4338755;32;21172;-73
2023/01/24 06:31:30;;;;;;;0.57;0.57;;;1.70;99.90;;;;;;4315783;32;20092;-73
2023/01/24 06:33:59;;;;;;;0.62;0.62;;;1.60;99.90;;;;;;4342431;32;20489;-73
2023/01/24 06:36:47;;;;;;;0.40;0.40;;;1.70;99.90;;;;;;4345279;32;20558;-73
2023/01/24 06:39:17;;;;;;;0.40;0.40;;;1.70;99.90;;;;;;4347477;32;20278;-74
2023/01/24 06:41:43;;;;;;;0.55;0.55;;;1.80;99.90;;;;;;4365097;32;20255;-74
2023/01/24 06:44:10;;;;;;;0.57;0.57;;;1.80;99.90;;;;;;4370341;32;20619;-74
2023/01/24 06:46:36;;;;;;;0.50;0.50;;;1.80;99.90;;;;;;4383615;32;20207;-73
2023/01/24 06:49:02;;;;;;;0.50;0.50;;;1.90;99.90;;;;;;4385585;32;20114;-73
2023/01/24 06:51:28;;;;;;;0.98;0.93;;;1.90;99.90;;;;;;4378229;32;20223;-75
2023/01/24 06:53:54;;;;;;;0.93;0.93;;;1.80;99.90;;;;;;4366909;32;20550;-75
2023/01/24 06:56:19;;;;;;;0.52;0.52;;;1.80;99.90;;;;;;4378980;32;20263;-74
2023/01/24 06:58:47;;;;;;;0.40;0.40;;;1.80;99.90;;;;;;4368674;32;21142;-73
2023/01/24 07:01:13;;;;;;;0.50;0.50;;;1.80;99.90;;;;;;4347755;32;20739;-73
2023/01/24 07:03:38;;;;;;;3.62;1.12;;;1.80;99.90;;;;;;4352623;32;20649;-73
2023/01/24 07:06:04;;;;;;;1.40;1.30;;;1.90;99.90;;;;;;4357987;32;20243;-74
2023/01/24 07:08:29;;;;;;;0.57;0.57;;;1.90;99.90;;;;;;4371835;32;20081;-74
2023/01/24 07:10:57;;;;;;;1.25;0.82;;;1.90;99.90;;;;;;4381202;32;20420;-75
2023/01/24 07:13:23;;;;;;;1.60;0.88;;;1.90;99.90;;;;;;4382376;32;20464;-73
2023/01/24 07:15:49;;;;;;;0.70;0.70;;;1.90;99.90;;;;;;4374798;32;20721;-74
2023/01/24 07:18:18;;;;;;;0.70;0.70;;;1.90;99.90;;;;;;4382701;32;20469;-73
2023/01/24 07:20:44;;;;;;;0.73;0.73;;;2.10;99.90;;;;;;4374078;32;20268;-73
2023/01/24 07:23:29;;;;;;;0.43;0.43;;;2.00;99.90;;;;;;4372691;32;20093;-74
2023/01/24 07:25:55;;;;;;;0.70;0.70;;;2.00;99.90;;;;;;4375460;32;20422;-73
2023/01/24 07:28:20;;;;;;;0.52;0.52;;;1.80;99.90;;;;;;4381764;32;20109;-74
2023/01/24 07:30:48;;;;;;;0.70;0.70;;;1.80;99.90;;;;;;4369702;32;20203;-74
2023/01/24 07:33:14;;;;;;;0.85;0.85;;;1.90;99.90;;;;;;4357166;32;20113;-74
2023/01/24 07:35:40;;;;;;;1.58;1.40;;;1.80;99.90;;;;;;4366183;32;20085;-73
2023/01/24 07:38:06;;;;;;;0.98;0.80;;;1.80;99.90;;;;;;4365882;32;20120;-73
2023/01/24 07:40:32;;;;;;;5.53;1.10;;;1.70;99.90;;;;;;4376864;32;20430;-74
2023/01/24 07:43:00;;;;;;;0.62;0.62;;;1.80;99.90;;;;;;4383126;32;21208;-75
2023/01/24 07:45:26;;;;;;;2.08;1.40;;;1.80;99.90;;;;;;4380854;32;20086;-73
2023/01/24 07:47:56;;;;;;;0.60;0.60;;;1.80;99.90;;;;;;4378469;32;20200;-74
2023/01/24 07:50:22;;;;;;;0.82;0.82;;;1.80;99.90;;;;;;4363650;32;20653;-74
2023/01/24 07:52:55;;;;;;;0.50;0.50;;;1.80;99.90;;;;;;4385326;32;20428;-74
2023/01/24 07:55:22;;;;;;;1.10;1.08;;;1.90;99.90;;;;;;4387905;32;20515;-73
2023/01/24 07:57:48;;;;;;;0.93;0.93;;;1.90;99.90;;;;;;4383438;32;20970;-74
2023/01/24 08:00:14;;;;;;;0.50;0.50;;;1.90;99.90;;;;;;4366606;32;20971;-73
2023/01/24 08:02:41;;;;;;;6.60;1.08;;;1.90;99.90;;;;;;4356850;32;20113;-74
2023/01/24 08:05:07;;;;;;;0.82;0.82;;;1.80;99.90;;;;;;4353304;32;21026;-73
2023/01/24 08:07:32;;;;;;;0.55;0.55;;;1.80;99.90;;;;;;4370997;32;20151;-74
2023/01/24 08:09:58;;;;;;;0.70;0.70;;;1.80;99.90;;;;;;4360619;32;20096;-74
2023/01/24 08:12:23;;;;;;;1.35;1.25;;;1.80;99.90;;;;;;4377585;32;20964;-74
2023/01/24 08:14:49;;;;;;;1.27;1.17;;;1.80;99.90;;;;;;4375814;32;21133;-74
2023/01/24 08:17:15;;;;;;;1.35;1.27;;;1.90;99.90;;;;;;4369982;32;20200;-74
2023/01/24 08:19:41;;;;;;;1.55;1.40;;;1.90;99.90;;;;;;4366305;32;20818;-73
2023/01/24 08:22:06;;;;;;;1.48;1.17;;;1.90;99.90;;;;;;4378774;32;20507;-74
2023/01/24 08:24:32;;;;;;;4.85;2.05;;;1.90;99.90;;;;;;4385676;32;20339;-74
2023/01/24 08:26:59;;;;;;;0.90;0.90;;;1.90;99.90;;;;;;4379971;32;20080;-73
2023/01/24 08:29:25;;;;;;;2.95;1.60;;;1.90;99.90;;;;;;4355409;32;20242;-74
2023/01/24 08:31:50;;;;;;;3.22;1.95;;;1.90;99.90;;;;;;4350929;32;20239;-74
2023/01/24 08:34:16;;;;;;;3.97;1.15;;;2.00;99.90;;;;;;4351959;32;20426;-73
2023/01/24 08:36:41;;;;;;;1.23;1.17;;;2.10;99.90;;;;;;4368079;32;20392;-74
2023/01/24 08:39:07;;;;;;;0.88;0.88;;;2.10;99.90;;;;;;4390973;32;20065;-74
2023/01/24 08:41:32;;;;;;;5.68;1.48;;;2.10;99.90;;;;;;4396149;32;20089;-73
2023/01/24 08:43:58;;;;;;;0.80;0.80;;;2.00;99.90;;;;;;4392497;32;20092;-74
2023/01/24 08:46:23;;;;;;;0.98;0.98;;;2.10;99.90;;;;;;4389779;32;20473;-75
2023/01/24 08:48:49;;;;;;;2.67;1.42;;;2.10;99.90;;;;;;4374055;32;20104;-74
2023/01/24 08:51:14;;;;;;;0.77;0.77;;;2.20;99.90;;;;;;4367981;32;20245;-73
2023/01/24 08:53:41;;;;;;;0.90;0.90;;;2.20;99.90;;;;;;4361348;32;20166;-73
2023/01/24 08:56:06;;;;;;;0.80;0.80;;;2.30;99.90;;;;;;4376235;32;20267;-74
2023/01/24 08:58:33;;;;;;;3.22;2.17;;;2.20;99.90;;;;;;4368049;32;20108;-74
2023/01/24 09:00:59;;;;;;;1.60;1.10;;;2.10;99.90;;;;;;4370895;32;20897;-73
2023/01/24 09:03:26;;;;;;;1.12;1.00;;;2.10;99.90;;;;;;4371834;32;20260;-73
2023/01/24 09:05:57;;;;;;;5.50;1.95;;;2.10;99.90;;;;;;4369510;32;20331;-73
2023/01/24 09:08:23;;;;;;;1.50;1.40;;;2.10;99.90;;;;;;4382394;32;20355;-73
2023/01/24 09:10:48;;;;;;;2.25;1.52;;;2.10;99.90;;;;;;4377025;32;20612;-73
2023/01/24 09:13:14;;;;;;;1.23;1.20;;;2.20;99.90;;;;;;4383743;32;21059;-74
2023/01/24 09:15:39;;;;;;;1.35;1.25;;;2.30;99.90;;;;;;4386659;32;20254;-74
2023/01/24 09:18:05;;;;;;;2.95;1.65;;;2.30;99.90;;;;;;4364770;32;20456;-74
2023/01/24 09:20:30;;;;;;;7.47;3.00;;;2.30;99.90;;;;;;4374357;32;20612;-73
2023/01/24 09:22:56;;;;;;;2.10;1.30;;;2.30;99.90;;;;;;4383985;32;20238;-73
2023/01/24 09:25:22;;;;;;;0.80;0.77;;;2.40;99.90;;;;;;4381300;32;20158;-73
2023/01/24 09:27:55;;;;;;;1.98;1.58;;;2.40;99.90;;;;;;4381776;32;20113;-74
2023/01/24 09:30:22;;;;;;;2.58;2.33;;;2.40;99.90;;;;;;4371054;32;20379;-74
2023/01/24 09:32:48;;;;;;;33.47;1.80;;;2.40;99.90;;;;;;4360742;32;20112;-75
2023/01/24 09:35:14;;;;;;;0.90;0.90;;;2.30;99.90;;;;;;4366048;32;20444;-74
2023/01/24 09:37:41;;;;;;;1.95;1.15;;;2.30;99.90;;;;;;4383641;32;20085;-74
2023/01/24 09:40:20;;;;;;;4.93;2.22;;;2.40;99.90;;;;;;4381624;32;20711;-73
2023/01/24 09:42:59;;;;;;;9.57;3.42;;;2.50;99.90;;;;;;4374263;32;20345;-74
2023/01/24 09:45:32;;;;;;;8.20;1.50;;;2.50;99.90;;;;;;4379947;32;20221;-73
2023/01/24 09:48:05;;;;;;;4.03;2.05;;;2.60;99.90;;;;;;4380320;32;20093;-73
2023/01/24 09:50:52;;;;;;;34.45;3.25;;;2.60;99.90;;;;;;4374972;32;20118;-73
2023/01/24 09:53:24;;;;;;;3.70;1.87;;;2.60;99.90;;;;;;4379238;32;20125;-74
2023/01/24 09:55:51;;;;;;;2.47;1.12;;;2.60;99.90;;;;;;4385965;32;20267;-74
2023/01/24 09:58:43;;;;;;;8.75;1.52;;;2.60;99.90;;;;;;4381687;32;20357;-73
2023/01/24 10:01:12;;;;;;;2.37;2.03;;;2.50;99.90;;;;;;4383202;32;20118;-74
2023/01/24 10:03:39;;;;;;;3.45;1.67;;;2.50;99.90;;;;;;4369324;32;20101;-75
2023/01/24 10:06:20;;;;;;;1.85;1.75;;;2.50;99.90;;;;;;4368117;32;20203;-75
2023/01/24 10:09:12;;;;;;;0.85;0.85;;;2.50;99.90;;;;;;4358305;32;20513;-74
2023/01/24 10:12:00;;;;;;;1.98;1.55;;;2.50;99.90;;;;;;4380526;32;20806;-74
2023/01/24 10:14:38;;;;;;;0.98;0.98;;;2.50;99.90;;;;;;4380516;32;20100;-74
2023/01/24 10:17:14;;;;;;;2.37;2.17;;;2.60;99.90;;;;;;4385960;32;21002;-73
2023/01/24 10:20:06;;;;;;;2.95;1.60;;;2.70;99.90;;;;;;4360258;32;21298;-73
2023/01/24 10:22:42;;;;;;;4.00;2.67;;;2.80;99.90;;;;;;4355034;32;20292;-75
2023/01/24 10:25:18;;;;;;;1.52;1.42;;;2.70;99.90;;;;;;4339212;32;20125;-75
2023/01/24 10:27:47;;;;;;;4.15;1.48;;;2.70;99.90;;;;;;4358997;32;20395;-76
2023/01/24 10:30:17;;;;;;;2.00;1.52;;;2.70;99.90;;;;;;4350802;32;21332;-74
2023/01/24 10:32:46;;;;;;;4.95;2.30;;;2.70;99.90;;;;;;4343037;32;20158;-74
2023/01/24 10:35:16;;;;;;;3.85;2.58;;;2.70;99.90;;;;;;4359780;32;20271;-74
2023/01/24 10:37:45;;;;;;;1.98;1.77;;;2.60;99.90;;;;;;4366494;32;20164;-75
2023/01/24 10:40:15;;;;;;;5.53;1.67;;;2.70;99.90;;;;;;4375727;32;20129;-75
2023/01/24 10:42:41;;;;;;;1.37;1.27;;;2.80;99.90;;;;;;4384189;32;20089;-73
2023/01/24 10:45:35;;;;;;;2.17;1.85;;;2.80;99.90;;;;;;4378149;32;20133;-75
2023/01/24 10:48:11;;;;;;;5.78;2.60;;;2.90;99.90;;;;;;4375142;32;20658;-75
2023/01/24 10:50:45;;;;;;;2.53;2.05;;;2.80;99.90;;;;;;4364455;32;20353;-75
2023/01/24 10:53:14;;;;;;;4.28;2.58;;;2.90;99.90;;;;;;4365146;32;20609;-78
2023/01/24 10:55:40;;;;;;;6.82;2.87;;;2.90;99.90;;;;;;4350983;32;20402;-75
2023/01/24 10:58:26;;;;;;;7.28;2.05;;;3.00;99.90;;;;;;4373077;32;20364;-76
2023/01/24 11:00:57;;;;;;;6.95;1.92;;;3.10;99.90;;;;;;4349087;32;20105;-75
2023/01/24 11:03:28;;;;;;;9.13;2.67;;;3.10;99.90;;;;;;4364440;32;20141;-75
2023/01/24 11:05:57;;;;;;;1.90;1.77;;;3.10;99.90;;;;;;4369979;32;21256;-75
2023/01/24 11:08:33;;;;;;;3.05;1.52;;;3.10;99.90;;;;;;4374035;32;20113;-74
2023/01/24 11:11:00;;;;;;;2.10;1.95;;;3.10;99.90;;;;;;4380144;32;20424;-75
2023/01/24 11:13:43;;;;;;;1.42;1.33;;;3.20;99.90;;;;;;4375136;32;20108;-74
2023/01/24 11:16:18;;;;;;;1.15;0.95;;;3.10;99.90;;;;;;4347997;32;20084;-73
2023/01/24 11:18:55;;;;;;;1.85;1.58;;;3.10;99.90;;;;;;4359981;32;20290;-76
2023/01/24 11:21:22;;;;;;;12.37;1.92;;;3.10;99.90;;;;;;4372251;32;20159;-76
2023/01/24 11:24:13;;;;;;;10.27;2.70;;;3.10;99.90;;;;;;4386567;32;20847;-74
2023/01/24 11:26:54;;;;;;;3.25;1.75;;;3.30;99.90;;;;;;4380003;32;20106;-73
2023/01/24 11:29:20;;;;;;;3.90;2.60;;;3.40;99.90;;;;;;4378104;32;20081;-74
2023/01/24 11:31:51;;;;;;;7.93;2.83;;;3.40;99.90;;;;;;4397779;32;20597;-76
2023/01/24 11:34:25;;;;;;;1.23;1.23;;;3.40;99.90;;;;;;4387627;32;20223;-75
2023/01/24 11:37:20;;;;;;;2.20;1.95;;;3.40;99.90;;;;;;4381507;32;20101;-76
2023/01/24 11:40:25;;;;;;;2.70;2.40;;;3.40;99.90;;;;;;4383293;32;20097;-74
2023/01/24 11:43:18;;;;;;;1.50;1.40;;;3.40;99.90;;;;;;4384000;32;78860;-77
2023/01/24 11:45:58;;;;;;;6.32;3.33;;;3.30;99.90;;;;;;4380650;32;20160;-76
2023/01/24 11:48:40;;;;;;;3.55;3.17;;;3.40;99.90;;;;;;4389517;32;20073;-75
2023/01/24 11:51:33;;;;;;;1.92;1.50;;;3.30;99.90;;;;;;4378103;32;20077;-74
2023/01/24 11:54:38;;;;;;;1.55;1.45;;;3.30;99.90;;;;;;4357063;32;20210;-75
2023/01/24 11:57:32;;;;;;;11.60;2.80;;;3.30;99.90;;;;;;4341891;32;21013;-74
2023/01/24 12:00:21;;;;;;;1.65;1.37;;;3.30;99.90;;;;;;4342775;32;21782;-75
2023/01/24 12:03:09;;;;;;;5.90;1.42;;;3.30;99.90;;;;;;4340084;32;21250;-74
2023/01/24 12:05:53;;;;;;;1.42;1.33;;;3.30;99.90;;;;;;4364210;32;20112;-74
2023/01/24 12:08:35;;;;;;;4.07;2.85;;;3.30;99.90;;;;;;4372045;32;20329;-74
2023/01/24 12:11:24;;;;;;;1.33;1.23;;;3.20;99.90;;;;;;4376526;32;20362;-74
2023/01/24 12:14:11;;;;;;;1.95;1.50;;;3.20;99.90;;;;;;4361349;32;20105;-73
2023/01/24 12:17:02;;;;;;;1.85;1.70;;;3.20;99.90;;;;;;4355766;32;20292;-73
2023/01/24 12:19:55;;;;;;;15.05;3.12;;;3.20;99.90;;;;;;4351698;32;20849;-74
2023/01/24 12:22:23;;;;;;;11.90;2.95;;;3.20;99.90;;;;;;4356904;32;20325;-75
2023/01/24 12:25:03;;;;;;;8.98;2.08;;;3.20;99.90;;;;;;4373111;32;20254;-75
2023/01/24 12:27:35;;;;;;;1.05;1.05;;;3.20;99.90;;;;;;4380551;32;20390;-75
2023/01/24 12:30:27;;;;;;;5.78;3.12;;;3.20;99.90;;;;;;4363895;32;21973;-74
2023/01/24 12:33:20;;;;;;;1.75;1.58;;;3.20;99.90;;;;;;4346562;32;20105;-73
2023/01/24 12:35:48;;;;;;;9.98;3.03;;;3.30;99.90;;;;;;4354509;32;20306;-73
2023/01/24 12:38:22;;;;;;;3.95;2.70;;;3.30;99.90;;;;;;4369679;32;20097;-72
2023/01/24 12:41:27;;;;;;;2.45;2.00;;;3.10;99.90;;;;;;4367183;32;20126;-74
2023/01/24 12:44:08;;;;;;;5.53;2.37;;;3.10;99.90;;;;;;4347775;32;21216;-73
2023/01/24 12:46:39;;;;;;;4.22;2.47;;;3.10;99.90;;;;;;4372969;32;21615;-73
2023/01/24 12:49:26;;;;;;;3.10;2.40;;;3.10;99.90;;;;;;4374975;32;20093;-74
2023/01/24 12:52:18;;;;;;;1.05;1.05;;;3.00;99.90;;;;;;4344198;32;20197;-73
2023/01/24 12:55:08;;;;;;;6.47;2.37;;;3.10;99.90;;;;;;4376242;32;20116;-74
2023/01/24 12:57:44;;;;;;;2.30;1.52;;;3.10;99.90;;;;;;4375440;32;20089;-72
2023/01/24 13:00:19;;;;;;;1.42;1.33;;;3.20;99.90;;;;;;4381751;32;20152;-73
2023/01/24 13:03:10;;;;;;;3.55;1.65;;;3.20;99.90;;;;;;4378027;32;20135;-74
2023/01/24 13:05:45;;;;;;;1.10;1.10;;;3.20;99.90;;;;;;4366553;32;20112;-73
2023/01/24 13:08:23;;;;;;;2.00;1.65;;;3.10;99.90;;;;;;4374518;32;20347;-72
2023/01/24 13:11:12;;;;;;;1.60;1.50;;;3.10;99.90;;;;;;4381412;32;20105;-73
2023/01/24 13:13:44;;;;;;;1.65;1.55;;;3.20;99.90;;;;;;4382705;32;20101;-73
2023/01/24 13:16:32;;;;;;;4.18;1.90;;;3.20;99.90;;;;;;4381319;32;20231;-74
2023/01/24 13:19:01;;;;;;;4.28;1.60;;;3.20;99.90;;;;;;4364110;32;20713;-73
2023/01/24 13:21:40;;;;;;;2.75;1.67;;;3.30;99.90;;;;;;4371233;32;20612;-73
2023/01/24 13:24:22;;;;;;;10.38;3.10;;;3.30;99.90;;;;;;4379545;32;20276;-73
2023/01/24 13:27:16;;;;;;;2.72;1.60;;;3.20;99.90;;;;;;4377674;32;20117;-72
2023/01/24 13:30:03;;;;;;;2.40;1.52;;;3.20;99.90;;;;;;4368438;32;20805;-74
2023/01/24 13:32:35;;;;;;;0.50;0.50;;;3.30;99.90;;;;;;4352086;32;20607;-74
2023/01/24 13:35:00;;;;;;;4.62;1.12;;;3.30;99.90;;;;;;4382475;32;20348;-74
2023/01/24 13:37:30;;;;;;;7.85;2.03;;;3.30;99.90;;;;;;4398803;32;21049;-72
2023/01/24 13:40:16;;;;;;;1.80;1.45;;;3.30;99.90;;;;;;4406591;32;20295;-72